| Date | Time | Temp. (oF) | Dew Point (oF) | Rel. Hum. (%) | Press. (in.) | Wind Dir. | Wind Speed (mph) | Hourly Rainfall (in.) |
|
|---|---|---|---|---|---|---|---|---|---|
| 1 | 07/18 | 00:00 | 68 | 67 | 98 | 29.73 | NW | 0 | 0.00 |
| 2 | 07/17 | 23:00 | 68 | 67 | 97 | 29.73 | S | 0 | 0.00 |
| 3 | 07/17 | 22:00 | 68 | 66 | 96 | 29.73 | E | 0 | 0.00 |
| 4 | 07/17 | 21:00 | 69 | 67 | 94 | 29.72 | ENE | 0 | 0.00 |
| 5 | 07/17 | 20:00 | 71 | 68 | 93 | 29.73 | SE | 0 | 0.00 |
| 6 | 07/17 | 19:00 | 70 | 67 | 93 | 29.73 | NE | 0 | 0.00 |
| 7 | 07/17 | 18:00 | 70 | 67 | 93 | 29.75 | N | 4 | 0.10 |
| 8 | 07/17 | 17:00 | 72 | 69 | 92 | 29.75 | N | 0 | 0.03 |
| 9 | 07/17 | 16:00 | 74 | 67 | 80 | 29.77 | N | 3 | 0.04 |
| 10 | 07/17 | 15:00 | 82 | 68 | 64 | 29.76 | N | 0 | 0.00 |
| 11 | 07/17 | 14:00 | 82 | 69 | 67 | 29.78 | SE | 0 | 0.00 |
| 12 | 07/17 | 13:00 | 84 | 67 | 58 | 29.79 | S | 0 | 0.00 |
| 13 | 07/17 | 12:00 | 84 | 67 | 57 | 29.80 | SE | 0 | 0.00 |
| 14 | 07/17 | 11:00 | 84 | 65 | 55 | 29.80 | NE | 3 | 0.00 |
| 15 | 07/17 | 10:00 | 82 | 67 | 62 | 29.81 | SSE | 0 | 0.00 |
| 16 | 07/17 | 09:00 | 77 | 69 | 79 | 29.82 | S | 0 | 0.00 |
| 17 | 07/17 | 08:00 | 70 | 68 | 94 | 29.80 | ESE | 0 | 0.00 |
| 18 | 07/17 | 07:00 | 65 | 64 | 97 | 29.83 | SW | 0 | 0.00 |
| 19 | 07/17 | 06:00 | 65 | 63 | 96 | 29.81 | SW | 0 | 0.00 |
| 20 | 07/17 | 05:00 | 66 | 64 | 95 | 29.80 | SW | 0 | 0.00 |
| 21 | 07/17 | 04:00 | 67 | 64 | 92 | 29.79 | SSW | 0 | 0.00 |
| 22 | 07/17 | 03:00 | 68 | 65 | 91 | 29.80 | SW | 0 | 0.00 |
| 23 | 07/17 | 02:00 | 69 | 64 | 86 | 29.79 | SW | 0 | 0.00 |
| 24 | 07/17 | 01:00 | 71 | 65 | 83 | 29.80 | SW | 0 | 0.00 |